sensor_id;sensor_type;location;lat;lon;timestamp;P1;durP1;ratioP1;P2;durP2;ratioP2
26536;SDS011;14204;51.262;5.488;2023-01-26T00:01:00;180.68;;;58.80;;
26536;SDS011;14204;51.262;5.488;2023-01-26T00:03:31;172.88;;;56.15;;
26536;SDS011;14204;51.262;5.488;2023-01-26T00:06:01;157.23;;;53.83;;
26536;SDS011;14204;51.262;5.488;2023-01-26T00:08:34;163.10;;;54.22;;
26536;SDS011;14204;51.262;5.488;2023-01-26T00:11:04;166.00;;;55.00;;
26536;SDS011;14204;51.262;5.488;2023-01-26T00:13:31;174.90;;;55.35;;
26536;SDS011;14204;51.262;5.488;2023-01-26T00:15:57;174.13;;;54.42;;
26536;SDS011;14204;51.262;5.488;2023-01-26T00:18:23;151.43;;;51.88;;
26536;SDS011;14204;51.262;5.488;2023-01-26T00:20:54;160.07;;;52.92;;
26536;SDS011;14204;51.262;5.488;2023-01-26T00:23:23;177.48;;;55.10;;
26536;SDS011;14204;51.262;5.488;2023-01-26T00:25:49;159.98;;;53.65;;
26536;SDS011;14204;51.262;5.488;2023-01-26T00:28:15;160.40;;;53.92;;
26536;SDS011;14204;51.262;5.488;2023-01-26T00:30:41;163.80;;;51.53;;
26536;SDS011;14204;51.262;5.488;2023-01-26T00:33:06;146.85;;;51.20;;
26536;SDS011;14204;51.262;5.488;2023-01-26T00:35:32;163.00;;;54.47;;
26536;SDS011;14204;51.262;5.488;2023-01-26T00:37:58;165.23;;;53.85;;
26536;SDS011;14204;51.262;5.488;2023-01-26T00:40:23;159.38;;;52.90;;
26536;SDS011;14204;51.262;5.488;2023-01-26T00:42:49;189.40;;;54.20;;
26536;SDS011;14204;51.262;5.488;2023-01-26T00:45:15;169.02;;;55.80;;
26536;SDS011;14204;51.262;5.488;2023-01-26T00:47:40;170.63;;;55.90;;
26536;SDS011;14204;51.262;5.488;2023-01-26T00:50:06;188.80;;;56.03;;
26536;SDS011;14204;51.262;5.488;2023-01-26T00:52:32;157.30;;;51.40;;
26536;SDS011;14204;51.262;5.488;2023-01-26T00:54:58;147.75;;;50.15;;
26536;SDS011;14204;51.262;5.488;2023-01-26T00:57:24;168.73;;;56.22;;
26536;SDS011;14204;51.262;5.488;2023-01-26T00:59:49;175.93;;;57.08;;
26536;SDS011;14204;51.262;5.488;2023-01-26T01:02:15;161.85;;;53.10;;
26536;SDS011;14204;51.262;5.488;2023-01-26T01:04:40;157.15;;;49.95;;
26536;SDS011;14204;51.262;5.488;2023-01-26T01:07:06;158.57;;;51.08;;
26536;SDS011;14204;51.262;5.488;2023-01-26T01:09:32;162.55;;;52.85;;
26536;SDS011;14204;51.262;5.488;2023-01-26T01:11:57;140.13;;;49.10;;
26536;SDS011;14204;51.262;5.488;2023-01-26T01:14:23;151.32;;;49.92;;
26536;SDS011;14204;51.262;5.488;2023-01-26T01:16:49;164.35;;;51.60;;
26536;SDS011;14204;51.262;5.488;2023-01-26T01:19:15;139.93;;;49.15;;
26536;SDS011;14204;51.262;5.488;2023-01-26T01:21:42;152.55;;;49.08;;
26536;SDS011;14204;51.262;5.488;2023-01-26T01:24:08;171.80;;;51.67;;
26536;SDS011;14204;51.262;5.488;2023-01-26T01:26:34;157.02;;;51.47;;
26536;SDS011;14204;51.262;5.488;2023-01-26T01:29:00;137.50;;;47.20;;
26536;SDS011;14204;51.262;5.488;2023-01-26T01:31:25;142.95;;;46.53;;
26536;SDS011;14204;51.262;5.488;2023-01-26T01:33:53;146.15;;;49.70;;
26536;SDS011;14204;51.262;5.488;2023-01-26T01:36:20;136.73;;;47.13;;
26536;SDS011;14204;51.262;5.488;2023-01-26T01:38:46;137.35;;;51.83;;
26536;SDS011;14204;51.262;5.488;2023-01-26T01:41:12;145.27;;;49.35;;
26536;SDS011;14204;51.262;5.488;2023-01-26T01:43:40;147.68;;;48.88;;
26536;SDS011;14204;51.262;5.488;2023-01-26T01:53:56;142.07;;;45.85;;
26536;SDS011;14204;51.262;5.488;2023-01-26T01:56:25;182.30;;;50.85;;
26536;SDS011;14204;51.262;5.488;2023-01-26T01:58:54;156.07;;;49.92;;
26536;SDS011;14204;51.262;5.488;2023-01-26T02:01:22;155.57;;;48.40;;
26536;SDS011;14204;51.262;5.488;2023-01-26T02:03:49;150.00;;;48.83;;
26536;SDS011;14204;51.262;5.488;2023-01-26T02:06:18;144.18;;;47.47;;
26536;SDS011;14204;51.262;5.488;2023-01-26T02:08:48;128.95;;;44.50;;
26536;SDS011;14204;51.262;5.488;2023-01-26T02:11:21;139.95;;;47.00;;
26536;SDS011;14204;51.262;5.488;2023-01-26T02:14:02;151.40;;;48.20;;
26536;SDS011;14204;51.262;5.488;2023-01-26T02:16:30;144.48;;;45.45;;
26536;SDS011;14204;51.262;5.488;2023-01-26T02:18:56;137.00;;;46.13;;
26536;SDS011;14204;51.262;5.488;2023-01-26T02:21:22;137.52;;;46.67;;
26536;SDS011;14204;51.262;5.488;2023-01-26T02:26:34;154.10;;;49.95;;
26536;SDS011;14204;51.262;5.488;2023-01-26T02:29:02;143.38;;;46.65;;
26536;SDS011;14204;51.262;5.488;2023-01-26T02:31:30;143.57;;;46.38;;
26536;SDS011;14204;51.262;5.488;2023-01-26T02:33:56;156.65;;;49.25;;
26536;SDS011;14204;51.262;5.488;2023-01-26T02:36:23;183.00;;;52.03;;
26536;SDS011;14204;51.262;5.488;2023-01-26T02:41:21;172.38;;;51.60;;
26536;SDS011;14204;51.262;5.488;2023-01-26T02:44:07;133.15;;;46.97;;
26536;SDS011;14204;51.262;5.488;2023-01-26T02:46:34;134.27;;;45.85;;
26536;SDS011;14204;51.262;5.488;2023-01-26T02:48:59;146.02;;;48.80;;
26536;SDS011;14204;51.262;5.488;2023-01-26T02:51:44;159.95;;;45.15;;
26536;SDS011;14204;51.262;5.488;2023-01-26T02:54:09;136.70;;;44.88;;
26536;SDS011;14204;51.262;5.488;2023-01-26T02:56:55;130.50;;;44.58;;
26536;SDS011;14204;51.262;5.488;2023-01-26T02:59:21;171.07;;;47.88;;
26536;SDS011;14204;51.262;5.488;2023-01-26T03:01:47;178.27;;;49.83;;
26536;SDS011;14204;51.262;5.488;2023-01-26T03:04:14;136.77;;;45.70;;
26536;SDS011;14204;51.262;5.488;2023-01-26T03:06:40;137.70;;;44.40;;
26536;SDS011;14204;51.262;5.488;2023-01-26T03:09:06;135.43;;;47.22;;
26536;SDS011;14204;51.262;5.488;2023-01-26T03:11:31;156.65;;;48.35;;
26536;SDS011;14204;51.262;5.488;2023-01-26T03:14:06;152.27;;;49.20;;
26536;SDS011;14204;51.262;5.488;2023-01-26T03:16:32;147.98;;;47.00;;
26536;SDS011;14204;51.262;5.488;2023-01-26T03:18:58;134.20;;;44.60;;
26536;SDS011;14204;51.262;5.488;2023-01-26T03:21:29;142.05;;;46.72;;
26536;SDS011;14204;51.262;5.488;2023-01-26T03:24:13;131.15;;;42.80;;
26536;SDS011;14204;51.262;5.488;2023-01-26T03:26:58;117.07;;;39.95;;
26536;SDS011;14204;51.262;5.488;2023-01-26T03:29:43;123.78;;;39.97;;
26536;SDS011;14204;51.262;5.488;2023-01-26T03:32:09;115.35;;;39.70;;
26536;SDS011;14204;51.262;5.488;2023-01-26T03:34:35;118.30;;;39.90;;
26536;SDS011;14204;51.262;5.488;2023-01-26T03:37:01;133.55;;;40.00;;
26536;SDS011;14204;51.262;5.488;2023-01-26T03:39:27;123.75;;;42.45;;
26536;SDS011;14204;51.262;5.488;2023-01-26T03:42:12;131.88;;;42.70;;
26536;SDS011;14204;51.262;5.488;2023-01-26T03:44:56;163.80;;;47.15;;
26536;SDS011;14204;51.262;5.488;2023-01-26T03:47:40;145.50;;;43.97;;
26536;SDS011;14204;51.262;5.488;2023-01-26T03:50:24;142.18;;;44.63;;
26536;SDS011;14204;51.262;5.488;2023-01-26T03:53:12;125.93;;;43.85;;
26536;SDS011;14204;51.262;5.488;2023-01-26T03:55:56;182.88;;;49.50;;
26536;SDS011;14204;51.262;5.488;2023-01-26T03:58:41;170.18;;;47.70;;
26536;SDS011;14204;51.262;5.488;2023-01-26T04:01:06;144.38;;;45.97;;
26536;SDS011;14204;51.262;5.488;2023-01-26T04:03:34;144.10;;;45.60;;
26536;SDS011;14204;51.262;5.488;2023-01-26T04:06:19;179.73;;;48.22;;
26536;SDS011;14204;51.262;5.488;2023-01-26T04:09:03;152.85;;;45.50;;
26536;SDS011;14204;51.262;5.488;2023-01-26T04:11:29;141.20;;;43.58;;
26536;SDS011;14204;51.262;5.488;2023-01-26T04:13:54;146.63;;;43.85;;
26536;SDS011;14204;51.262;5.488;2023-01-26T04:16:38;159.30;;;43.85;;
26536;SDS011;14204;51.262;5.488;2023-01-26T04:19:22;179.38;;;47.65;;
26536;SDS011;14204;51.262;5.488;2023-01-26T04:22:06;137.43;;;42.33;;
26536;SDS011;14204;51.262;5.488;2023-01-26T04:24:32;136.43;;;42.20;;
26536;SDS011;14204;51.262;5.488;2023-01-26T04:26:57;163.05;;;44.03;;
26536;SDS011;14204;51.262;5.488;2023-01-26T04:29:23;152.73;;;42.63;;
26536;SDS011;14204;51.262;5.488;2023-01-26T04:31:49;129.95;;;41.00;;
26536;SDS011;14204;51.262;5.488;2023-01-26T04:34:14;148.93;;;43.42;;
26536;SDS011;14204;51.262;5.488;2023-01-26T04:36:40;137.52;;;41.40;;
26536;SDS011;14204;51.262;5.488;2023-01-26T04:39:06;133.52;;;41.03;;
26536;SDS011;14204;51.262;5.488;2023-01-26T04:41:32;172.77;;;45.72;;
26536;SDS011;14204;51.262;5.488;2023-01-26T04:43:58;156.63;;;42.75;;
26536;SDS011;14204;51.262;5.488;2023-01-26T04:46:24;187.38;;;48.80;;
26536;SDS011;14204;51.262;5.488;2023-01-26T04:48:50;132.45;;;41.28;;
26536;SDS011;14204;51.262;5.488;2023-01-26T04:51:19;175.00;;;48.50;;
26536;SDS011;14204;51.262;5.488;2023-01-26T04:53:46;158.32;;;46.17;;
26536;SDS011;14204;51.262;5.488;2023-01-26T04:56:21;133.50;;;43.28;;
26536;SDS011;14204;51.262;5.488;2023-01-26T04:58:50;172.27;;;44.65;;
26536;SDS011;14204;51.262;5.488;2023-01-26T05:01:17;186.05;;;45.90;;
26536;SDS011;14204;51.262;5.488;2023-01-26T05:03:43;158.93;;;45.83;;
26536;SDS011;14204;51.262;5.488;2023-01-26T05:06:09;155.35;;;41.80;;
26536;SDS011;14204;51.262;5.488;2023-01-26T05:08:35;170.38;;;44.65;;
26536;SDS011;14204;51.262;5.488;2023-01-26T05:11:01;142.00;;;42.40;;
26536;SDS011;14204;51.262;5.488;2023-01-26T05:13:27;160.70;;;42.65;;
26536;SDS011;14204;51.262;5.488;2023-01-26T05:15:53;150.88;;;42.90;;
26536;SDS011;14204;51.262;5.488;2023-01-26T05:18:18;162.18;;;44.95;;
26536;SDS011;14204;51.262;5.488;2023-01-26T05:20:44;130.80;;;40.85;;
26536;SDS011;14204;51.262;5.488;2023-01-26T05:23:09;145.25;;;42.83;;
26536;SDS011;14204;51.262;5.488;2023-01-26T05:25:35;129.35;;;40.15;;
26536;SDS011;14204;51.262;5.488;2023-01-26T05:28:00;135.85;;;41.13;;
26536;SDS011;14204;51.262;5.488;2023-01-26T05:30:26;132.95;;;39.88;;
26536;SDS011;14204;51.262;5.488;2023-01-26T05:32:52;161.10;;;42.70;;
26536;SDS011;14204;51.262;5.488;2023-01-26T05:35:17;122.20;;;37.20;;
26536;SDS011;14204;51.262;5.488;2023-01-26T05:37:43;128.10;;;38.05;;
26536;SDS011;14204;51.262;5.488;2023-01-26T05:40:10;126.95;;;37.92;;
26536;SDS011;14204;51.262;5.488;2023-01-26T05:42:36;135.82;;;42.42;;
26536;SDS011;14204;51.262;5.488;2023-01-26T05:45:03;129.88;;;38.80;;
26536;SDS011;14204;51.262;5.488;2023-01-26T05:47:29;173.48;;;42.72;;
26536;SDS011;14204;51.262;5.488;2023-01-26T05:49:55;145.25;;;40.70;;
26536;SDS011;14204;51.262;5.488;2023-01-26T05:52:21;141.10;;;39.22;;
26536;SDS011;14204;51.262;5.488;2023-01-26T05:54:46;159.90;;;41.78;;
26536;SDS011;14204;51.262;5.488;2023-01-26T05:57:12;150.75;;;40.55;;
26536;SDS011;14204;51.262;5.488;2023-01-26T05:59:40;155.20;;;40.72;;
26536;SDS011;14204;51.262;5.488;2023-01-26T06:02:06;130.57;;;38.45;;
26536;SDS011;14204;51.262;5.488;2023-01-26T06:04:33;112.00;;;34.35;;
26536;SDS011;14204;51.262;5.488;2023-01-26T06:06:58;103.18;;;32.78;;
26536;SDS011;14204;51.262;5.488;2023-01-26T06:09:24;102.97;;;33.70;;
26536;SDS011;14204;51.262;5.488;2023-01-26T06:11:50;99.43;;;30.75;;
26536;SDS011;14204;51.262;5.488;2023-01-26T06:14:16;121.80;;;35.38;;
26536;SDS011;14204;51.262;5.488;2023-01-26T06:16:41;106.57;;;32.60;;
26536;SDS011;14204;51.262;5.488;2023-01-26T06:19:08;111.43;;;34.63;;
26536;SDS011;14204;51.262;5.488;2023-01-26T06:21:34;101.32;;;32.55;;
26536;SDS011;14204;51.262;5.488;2023-01-26T06:24:00;98.78;;;31.98;;
26536;SDS011;14204;51.262;5.488;2023-01-26T06:26:26;106.78;;;33.35;;
26536;SDS011;14204;51.262;5.488;2023-01-26T06:28:52;103.18;;;32.35;;
26536;SDS011;14204;51.262;5.488;2023-01-26T06:31:17;113.80;;;35.45;;
26536;SDS011;14204;51.262;5.488;2023-01-26T06:33:43;111.63;;;33.42;;
26536;SDS011;14204;51.262;5.488;2023-01-26T06:36:10;103.68;;;32.47;;
26536;SDS011;14204;51.262;5.488;2023-01-26T06:38:49;109.72;;;33.45;;
26536;SDS011;14204;51.262;5.488;2023-01-26T06:41:17;96.95;;;32.83;;
26536;SDS011;14204;51.262;5.488;2023-01-26T06:43:43;92.72;;;31.45;;
26536;SDS011;14204;51.262;5.488;2023-01-26T06:46:11;103.60;;;32.50;;
26536;SDS011;14204;51.262;5.488;2023-01-26T06:48:37;109.95;;;31.48;;
26536;SDS011;14204;51.262;5.488;2023-01-26T06:51:04;130.05;;;34.40;;
26536;SDS011;14204;51.262;5.488;2023-01-26T06:53:42;132.00;;;34.83;;
26536;SDS011;14204;51.262;5.488;2023-01-26T06:56:11;156.45;;;37.88;;
26536;SDS011;14204;51.262;5.488;2023-01-26T06:58:36;110.95;;;31.83;;
26536;SDS011;14204;51.262;5.488;2023-01-26T07:01:02;110.90;;;31.70;;
26536;SDS011;14204;51.262;5.488;2023-01-26T07:03:28;109.80;;;32.35;;
26536;SDS011;14204;51.262;5.488;2023-01-26T07:05:54;104.70;;;31.80;;
26536;SDS011;14204;51.262;5.488;2023-01-26T07:08:20;101.78;;;31.02;;
26536;SDS011;14204;51.262;5.488;2023-01-26T07:10:45;105.88;;;30.80;;
26536;SDS011;14204;51.262;5.488;2023-01-26T07:13:11;151.18;;;35.97;;
26536;SDS011;14204;51.262;5.488;2023-01-26T07:15:37;103.40;;;32.53;;
26536;SDS011;14204;51.262;5.488;2023-01-26T07:18:02;101.45;;;32.13;;
26536;SDS011;14204;51.262;5.488;2023-01-26T07:20:28;125.03;;;31.35;;
26536;SDS011;14204;51.262;5.488;2023-01-26T07:22:53;107.80;;;32.40;;
26536;SDS011;14204;51.262;5.488;2023-01-26T07:25:19;107.60;;;34.30;;
26536;SDS011;14204;51.262;5.488;2023-01-26T07:27:45;104.90;;;31.65;;
26536;SDS011;14204;51.262;5.488;2023-01-26T07:30:11;106.90;;;31.67;;
26536;SDS011;14204;51.262;5.488;2023-01-26T07:32:39;106.75;;;31.23;;
26536;SDS011;14204;51.262;5.488;2023-01-26T07:35:06;111.53;;;33.40;;
26536;SDS011;14204;51.262;5.488;2023-01-26T07:37:32;110.40;;;33.47;;
26536;SDS011;14204;51.262;5.488;2023-01-26T07:39:57;99.07;;;30.48;;
26536;SDS011;14204;51.262;5.488;2023-01-26T07:42:23;106.63;;;31.73;;
26536;SDS011;14204;51.262;5.488;2023-01-26T07:44:48;124.85;;;33.80;;
26536;SDS011;14204;51.262;5.488;2023-01-26T07:47:14;114.93;;;32.17;;
26536;SDS011;14204;51.262;5.488;2023-01-26T07:49:40;100.95;;;31.88;;
26536;SDS011;14204;51.262;5.488;2023-01-26T07:52:05;103.72;;;31.38;;
26536;SDS011;14204;51.262;5.488;2023-01-26T07:54:32;104.20;;;31.42;;
26536;SDS011;14204;51.262;5.488;2023-01-26T07:56:58;103.93;;;29.95;;
26536;SDS011;14204;51.262;5.488;2023-01-26T07:59:23;104.47;;;30.58;;
26536;SDS011;14204;51.262;5.488;2023-01-26T08:01:49;99.78;;;30.35;;
26536;SDS011;14204;51.262;5.488;2023-01-26T08:04:15;97.95;;;28.05;;
26536;SDS011;14204;51.262;5.488;2023-01-26T08:06:41;101.65;;;28.95;;
26536;SDS011;14204;51.262;5.488;2023-01-26T08:09:07;56.25;;;21.55;;
26536;SDS011;14204;51.262;5.488;2023-01-26T08:11:33;100.32;;;30.48;;
26536;SDS011;14204;51.262;5.488;2023-01-26T08:13:59;90.47;;;30.48;;
26536;SDS011;14204;51.262;5.488;2023-01-26T08:16:24;99.68;;;29.58;;
26536;SDS011;14204;51.262;5.488;2023-01-26T08:18:50;107.97;;;31.52;;
26536;SDS011;14204;51.262;5.488;2023-01-26T08:21:16;100.50;;;31.08;;
26536;SDS011;14204;51.262;5.488;2023-01-26T08:23:46;110.80;;;31.05;;
26536;SDS011;14204;51.262;5.488;2023-01-26T08:26:15;113.13;;;31.90;;
26536;SDS011;14204;51.262;5.488;2023-01-26T08:28:42;112.20;;;32.20;;
26536;SDS011;14204;51.262;5.488;2023-01-26T08:31:15;117.22;;;33.17;;
26536;SDS011;14204;51.262;5.488;2023-01-26T08:33:44;105.90;;;31.35;;
26536;SDS011;14204;51.262;5.488;2023-01-26T08:36:11;114.03;;;32.05;;
26536;SDS011;14204;51.262;5.488;2023-01-26T08:38:38;108.40;;;30.33;;
26536;SDS011;14204;51.262;5.488;2023-01-26T08:41:03;110.78;;;31.92;;
26536;SDS011;14204;51.262;5.488;2023-01-26T08:43:29;65.70;;;24.42;;
26536;SDS011;14204;51.262;5.488;2023-01-26T08:45:55;94.15;;;29.02;;
26536;SDS011;14204;51.262;5.488;2023-01-26T08:48:21;89.82;;;27.35;;
26536;SDS011;14204;51.262;5.488;2023-01-26T08:50:46;141.82;;;29.75;;
26536;SDS011;14204;51.262;5.488;2023-01-26T08:53:12;86.43;;;27.73;;
26536;SDS011;14204;51.262;5.488;2023-01-26T08:55:38;56.38;;;22.05;;
26536;SDS011;14204;51.262;5.488;2023-01-26T08:58:04;81.40;;;25.98;;
26536;SDS011;14204;51.262;5.488;2023-01-26T09:00:29;85.28;;;27.25;;
26536;SDS011;14204;51.262;5.488;2023-01-26T09:03:01;77.47;;;24.45;;
26536;SDS011;14204;51.262;5.488;2023-01-26T09:05:32;80.35;;;25.20;;
26536;SDS011;14204;51.262;5.488;2023-01-26T09:08:00;73.97;;;23.33;;
26536;SDS011;14204;51.262;5.488;2023-01-26T09:10:26;74.50;;;23.02;;
26536;SDS011;14204;51.262;5.488;2023-01-26T09:12:52;77.90;;;23.80;;
26536;SDS011;14204;51.262;5.488;2023-01-26T09:15:18;69.35;;;23.48;;
26536;SDS011;14204;51.262;5.488;2023-01-26T09:17:43;79.03;;;22.85;;
26536;SDS011;14204;51.262;5.488;2023-01-26T09:20:12;75.90;;;25.55;;
26536;SDS011;14204;51.262;5.488;2023-01-26T09:22:38;69.28;;;22.00;;
26536;SDS011;14204;51.262;5.488;2023-01-26T09:25:05;72.15;;;22.25;;
26536;SDS011;14204;51.262;5.488;2023-01-26T09:27:31;76.32;;;21.25;;
26536;SDS011;14204;51.262;5.488;2023-01-26T09:29:56;62.25;;;21.90;;
26536;SDS011;14204;51.262;5.488;2023-01-26T09:32:22;70.68;;;21.63;;
26536;SDS011;14204;51.262;5.488;2023-01-26T09:34:48;56.95;;;19.35;;
26536;SDS011;14204;51.262;5.488;2023-01-26T09:37:13;61.92;;;20.02;;
26536;SDS011;14204;51.262;5.488;2023-01-26T09:39:39;62.65;;;19.17;;
26536;SDS011;14204;51.262;5.488;2023-01-26T09:42:11;74.07;;;23.80;;
26536;SDS011;14204;51.262;5.488;2023-01-26T09:44:53;59.63;;;21.17;;
26536;SDS011;14204;51.262;5.488;2023-01-26T09:47:53;67.22;;;21.38;;
26536;SDS011;14204;51.262;5.488;2023-01-26T09:50:34;83.13;;;24.73;;
26536;SDS011;14204;51.262;5.488;2023-01-26T09:55:51;58.10;;;19.92;;
26536;SDS011;14204;51.262;5.488;2023-01-26T09:58:36;59.97;;;18.70;;
26536;SDS011;14204;51.262;5.488;2023-01-26T10:01:05;56.42;;;18.42;;
26536;SDS011;14204;51.262;5.488;2023-01-26T10:06:17;68.38;;;22.92;;
26536;SDS011;14204;51.262;5.488;2023-01-26T10:08:53;62.38;;;22.27;;
26536;SDS011;14204;51.262;5.488;2023-01-26T10:11:28;55.22;;;20.30;;
26536;SDS011;14204;51.262;5.488;2023-01-26T10:14:06;90.85;;;24.75;;
26536;SDS011;14204;51.262;5.488;2023-01-26T10:16:38;72.22;;;21.88;;
26536;SDS011;14204;51.262;5.488;2023-01-26T10:19:13;62.38;;;20.95;;
26536;SDS011;14204;51.262;5.488;2023-01-26T10:21:46;104.13;;;23.52;;
26536;SDS011;14204;51.262;5.488;2023-01-26T10:24:14;76.30;;;21.00;;
26536;SDS011;14204;51.262;5.488;2023-01-26T10:26:44;71.60;;;21.75;;
26536;SDS011;14204;51.262;5.488;2023-01-26T10:29:12;75.45;;;22.42;;
26536;SDS011;14204;51.262;5.488;2023-01-26T10:31:39;76.97;;;22.70;;
26536;SDS011;14204;51.262;5.488;2023-01-26T10:36:38;103.38;;;24.17;;
26536;SDS011;14204;51.262;5.488;2023-01-26T10:39:06;73.85;;;20.40;;
26536;SDS011;14204;51.262;5.488;2023-01-26T10:41:33;97.90;;;25.10;;
26536;SDS011;14204;51.262;5.488;2023-01-26T10:51:36;93.45;;;24.58;;
26536;SDS011;14204;51.262;5.488;2023-01-26T10:56:58;94.72;;;24.35;;
26536;SDS011;14204;51.262;5.488;2023-01-26T10:59:50;99.75;;;24.77;;
26536;SDS011;14204;51.262;5.488;2023-01-26T11:02:28;105.03;;;26.38;;
26536;SDS011;14204;51.262;5.488;2023-01-26T11:07:27;150.57;;;30.10;;
26536;SDS011;14204;51.262;5.488;2023-01-26T11:10:15;110.53;;;27.60;;
26536;SDS011;14204;51.262;5.488;2023-01-26T11:12:41;123.88;;;27.60;;
26536;SDS011;14204;51.262;5.488;2023-01-26T11:15:14;105.05;;;27.05;;
26536;SDS011;14204;51.262;5.488;2023-01-26T11:17:53;105.68;;;27.00;;
26536;SDS011;14204;51.262;5.488;2023-01-26T11:20:29;111.82;;;29.10;;
26536;SDS011;14204;51.262;5.488;2023-01-26T11:23:21;104.35;;;29.70;;
26536;SDS011;14204;51.262;5.488;2023-01-26T11:31:43;123.03;;;29.27;;
26536;SDS011;14204;51.262;5.488;2023-01-26T11:34:23;147.13;;;31.90;;
26536;SDS011;14204;51.262;5.488;2023-01-26T11:42:19;109.85;;;28.45;;
26536;SDS011;14204;51.262;5.488;2023-01-26T12:00:52;121.10;;;30.77;;
26536;SDS011;14204;51.262;5.488;2023-01-26T12:06:14;151.60;;;33.08;;
26536;SDS011;14204;51.262;5.488;2023-01-26T12:09:02;155.52;;;32.97;;
26536;SDS011;14204;51.262;5.488;2023-01-26T12:11:39;149.43;;;35.80;;
26536;SDS011;14204;51.262;5.488;2023-01-26T12:19:44;143.07;;;33.92;;
26536;SDS011;14204;51.262;5.488;2023-01-26T12:22:30;131.23;;;33.47;;
26536;SDS011;14204;51.262;5.488;2023-01-26T12:25:04;161.73;;;36.05;;
26536;SDS011;14204;51.262;5.488;2023-01-26T12:27:34;143.60;;;33.63;;
26536;SDS011;14204;51.262;5.488;2023-01-26T12:32:58;160.27;;;35.10;;
26536;SDS011;14204;51.262;5.488;2023-01-26T12:38:18;155.98;;;36.45;;
26536;SDS011;14204;51.262;5.488;2023-01-26T12:46:39;170.63;;;36.25;;
26536;SDS011;14204;51.262;5.488;2023-01-26T12:49:16;171.85;;;38.10;;
26536;SDS011;14204;51.262;5.488;2023-01-26T12:51:54;152.15;;;36.38;;
26536;SDS011;14204;51.262;5.488;2023-01-26T12:54:30;180.55;;;39.65;;
26536;SDS011;14204;51.262;5.488;2023-01-26T12:57:05;197.30;;;42.13;;
26536;SDS011;14204;51.262;5.488;2023-01-26T12:59:37;218.75;;;42.55;;
26536;SDS011;14204;51.262;5.488;2023-01-26T13:02:37;183.50;;;37.67;;
26536;SDS011;14204;51.262;5.488;2023-01-26T13:04:58;196.38;;;39.83;;
26536;SDS011;14204;51.262;5.488;2023-01-26T13:07:26;178.80;;;41.78;;
26536;SDS011;14204;51.262;5.488;2023-01-26T13:10:06;185.25;;;40.47;;
26536;SDS011;14204;51.262;5.488;2023-01-26T13:15:17;191.93;;;43.50;;
26536;SDS011;14204;51.262;5.488;2023-01-26T13:17:52;161.82;;;39.95;;
26536;SDS011;14204;51.262;5.488;2023-01-26T13:20:24;179.77;;;41.47;;
26536;SDS011;14204;51.262;5.488;2023-01-26T13:22:53;189.98;;;45.28;;
26536;SDS011;14204;51.262;5.488;2023-01-26T13:25:30;206.38;;;44.85;;
26536;SDS011;14204;51.262;5.488;2023-01-26T13:35:29;181.95;;;39.30;;
26536;SDS011;14204;51.262;5.488;2023-01-26T13:38:02;169.80;;;36.95;;
26536;SDS011;14204;51.262;5.488;2023-01-26T13:40:36;185.77;;;39.25;;
26536;SDS011;14204;51.262;5.488;2023-01-26T13:48:52;179.05;;;38.15;;
26536;SDS011;14204;51.262;5.488;2023-01-26T13:51:23;156.07;;;36.88;;
26536;SDS011;14204;51.262;5.488;2023-01-26T13:54:03;179.38;;;40.03;;
26536;SDS011;14204;51.262;5.488;2023-01-26T13:56:36;198.88;;;39.53;;
26536;SDS011;14204;51.262;5.488;2023-01-26T13:59:04;184.00;;;39.08;;
26536;SDS011;14204;51.262;5.488;2023-01-26T14:01:32;188.55;;;39.03;;
26536;SDS011;14204;51.262;5.488;2023-01-26T14:04:10;168.23;;;37.20;;
26536;SDS011;14204;51.262;5.488;2023-01-26T14:06:37;184.43;;;39.28;;
26536;SDS011;14204;51.262;5.488;2023-01-26T14:09:03;196.18;;;38.75;;
26536;SDS011;14204;51.262;5.488;2023-01-26T14:11:31;169.65;;;39.22;;
26536;SDS011;14204;51.262;5.488;2023-01-26T14:13:58;189.63;;;40.17;;
26536;SDS011;14204;51.262;5.488;2023-01-26T14:16:30;186.98;;;42.17;;
26536;SDS011;14204;51.262;5.488;2023-01-26T14:24:25;171.98;;;38.65;;
26536;SDS011;14204;51.262;5.488;2023-01-26T14:26:56;187.25;;;41.00;;
26536;SDS011;14204;51.262;5.488;2023-01-26T14:29:23;175.27;;;40.67;;
26536;SDS011;14204;51.262;5.488;2023-01-26T14:31:51;205.20;;;41.92;;
26536;SDS011;14204;51.262;5.488;2023-01-26T14:34:20;170.35;;;40.20;;
26536;SDS011;14204;51.262;5.488;2023-01-26T14:37:09;185.40;;;39.72;;
26536;SDS011;14204;51.262;5.488;2023-01-26T14:39:41;187.20;;;40.35;;
26536;SDS011;14204;51.262;5.488;2023-01-26T14:42:15;194.48;;;41.20;;
26536;SDS011;14204;51.262;5.488;2023-01-26T14:44:43;184.70;;;40.17;;
26536;SDS011;14204;51.262;5.488;2023-01-26T14:49:53;211.73;;;49.25;;
26536;SDS011;14204;51.262;5.488;2023-01-26T14:52:27;198.70;;;43.63;;
26536;SDS011;14204;51.262;5.488;2023-01-26T14:54:56;215.30;;;47.53;;
26536;SDS011;14204;51.262;5.488;2023-01-26T14:57:27;225.45;;;48.60;;
26536;SDS011;14204;51.262;5.488;2023-01-26T14:59:54;223.20;;;52.08;;
26536;SDS011;14204;51.262;5.488;2023-01-26T15:02:23;236.18;;;53.42;;
26536;SDS011;14204;51.262;5.488;2023-01-26T15:04:57;219.38;;;46.92;;
26536;SDS011;14204;51.262;5.488;2023-01-26T15:07:41;239.98;;;47.25;;
26536;SDS011;14204;51.262;5.488;2023-01-26T15:16:21;199.88;;;44.88;;
26536;SDS011;14204;51.262;5.488;2023-01-26T15:18:29;167.32;;;41.22;;
26536;SDS011;14204;51.262;5.488;2023-01-26T15:23:35;185.75;;;46.33;;
26536;SDS011;14204;51.262;5.488;2023-01-26T15:26:02;169.20;;;42.95;;
26536;SDS011;14204;51.262;5.488;2023-01-26T15:28:33;182.55;;;44.25;;
26536;SDS011;14204;51.262;5.488;2023-01-26T15:30:59;202.63;;;46.10;;
26536;SDS011;14204;51.262;5.488;2023-01-26T15:36:05;211.10;;;44.30;;
26536;SDS011;14204;51.262;5.488;2023-01-26T15:38:45;245.57;;;48.05;;
26536;SDS011;14204;51.262;5.488;2023-01-26T15:41:11;218.98;;;49.28;;
26536;SDS011;14204;51.262;5.488;2023-01-26T15:43:37;276.67;;;52.97;;
26536;SDS011;14204;51.262;5.488;2023-01-26T15:46:03;175.55;;;43.00;;
26536;SDS011;14204;51.262;5.488;2023-01-26T15:48:28;231.07;;;47.65;;
26536;SDS011;14204;51.262;5.488;2023-01-26T15:50:55;192.80;;;44.33;;
26536;SDS011;14204;51.262;5.488;2023-01-26T15:53:21;219.38;;;48.03;;
26536;SDS011;14204;51.262;5.488;2023-01-26T15:55:48;167.75;;;41.13;;
26536;SDS011;14204;51.262;5.488;2023-01-26T15:58:17;152.30;;;37.92;;
26536;SDS011;14204;51.262;5.488;2023-01-26T16:00:43;174.85;;;42.45;;
26536;SDS011;14204;51.262;5.488;2023-01-26T16:03:15;142.02;;;37.42;;
26536;SDS011;14204;51.262;5.488;2023-01-26T16:05:43;182.25;;;43.33;;
26536;SDS011;14204;51.262;5.488;2023-01-26T16:08:12;163.40;;;41.15;;
26536;SDS011;14204;51.262;5.488;2023-01-26T16:10:38;180.75;;;44.33;;
26536;SDS011;14204;51.262;5.488;2023-01-26T16:13:08;156.60;;;44.28;;
26536;SDS011;14204;51.262;5.488;2023-01-26T16:15:41;143.27;;;39.33;;
26536;SDS011;14204;51.262;5.488;2023-01-26T16:18:09;159.13;;;41.58;;
26536;SDS011;14204;51.262;5.488;2023-01-26T16:20:36;129.98;;;37.70;;